sensor_id;sensor_type;location;lat;lon;timestamp;P1;durP1;ratioP1;P2;durP2;ratioP2
76167;SDS011;64927;48.214;16.378;2023-02-12T00:02:15;26.95;;;17.38;;
76167;SDS011;64927;48.214;16.378;2023-02-12T00:04:44;24.55;;;16.20;;
76167;SDS011;64927;48.214;16.378;2023-02-12T00:07:11;27.17;;;17.52;;
76167;SDS011;64927;48.214;16.378;2023-02-12T00:09:39;25.23;;;16.92;;
76167;SDS011;64927;48.214;16.378;2023-02-12T00:12:05;26.55;;;17.50;;
76167;SDS011;64927;48.214;16.378;2023-02-12T00:14:35;25.17;;;16.90;;
76167;SDS011;64927;48.214;16.378;2023-02-12T00:17:04;24.52;;;16.85;;
76167;SDS011;64927;48.214;16.378;2023-02-12T00:19:29;23.45;;;15.95;;
76167;SDS011;64927;48.214;16.378;2023-02-12T00:21:55;27.20;;;16.20;;
76167;SDS011;64927;48.214;16.378;2023-02-12T00:24:23;22.05;;;15.68;;
76167;SDS011;64927;48.214;16.378;2023-02-12T00:26:49;26.17;;;16.67;;
76167;SDS011;64927;48.214;16.378;2023-02-12T00:29:15;21.33;;;15.75;;
76167;SDS011;64927;48.214;16.378;2023-02-12T00:31:41;20.52;;;15.27;;
76167;SDS011;64927;48.214;16.378;2023-02-12T00:34:06;24.45;;;17.02;;
76167;SDS011;64927;48.214;16.378;2023-02-12T00:36:33;24.55;;;16.30;;
76167;SDS011;64927;48.214;16.378;2023-02-12T00:38:59;23.75;;;16.10;;
76167;SDS011;64927;48.214;16.378;2023-02-12T00:41:25;23.25;;;15.18;;
76167;SDS011;64927;48.214;16.378;2023-02-12T00:43:51;21.85;;;15.80;;
76167;SDS011;64927;48.214;16.378;2023-02-12T00:46:17;22.33;;;15.25;;
76167;SDS011;64927;48.214;16.378;2023-02-12T00:48:43;23.40;;;15.90;;
76167;SDS011;64927;48.214;16.378;2023-02-12T00:51:08;22.73;;;15.50;;
76167;SDS011;64927;48.214;16.378;2023-02-12T00:53:34;19.63;;;14.38;;
76167;SDS011;64927;48.214;16.378;2023-02-12T00:56:00;20.58;;;15.55;;
76167;SDS011;64927;48.214;16.378;2023-02-12T00:58:26;25.25;;;16.02;;
76167;SDS011;64927;48.214;16.378;2023-02-12T01:00:52;24.05;;;16.58;;
76167;SDS011;64927;48.214;16.378;2023-02-12T01:03:20;22.10;;;15.35;;
76167;SDS011;64927;48.214;16.378;2023-02-12T01:05:46;22.08;;;14.93;;
76167;SDS011;64927;48.214;16.378;2023-02-12T01:08:13;22.65;;;15.02;;
76167;SDS011;64927;48.214;16.378;2023-02-12T01:10:40;19.30;;;14.65;;
76167;SDS011;64927;48.214;16.378;2023-02-12T01:13:10;21.08;;;14.38;;
76167;SDS011;64927;48.214;16.378;2023-02-12T01:15:38;19.98;;;13.68;;
76167;SDS011;64927;48.214;16.378;2023-02-12T01:18:04;20.13;;;13.10;;
76167;SDS011;64927;48.214;16.378;2023-02-12T01:20:31;20.05;;;13.35;;
76167;SDS011;64927;48.214;16.378;2023-02-12T01:22:59;19.23;;;13.48;;
76167;SDS011;64927;48.214;16.378;2023-02-12T01:25:25;21.95;;;14.38;;
76167;SDS011;64927;48.214;16.378;2023-02-12T01:27:54;20.50;;;14.52;;
76167;SDS011;64927;48.214;16.378;2023-02-12T01:30:19;20.67;;;14.98;;
76167;SDS011;64927;48.214;16.378;2023-02-12T01:32:50;24.25;;;15.35;;
76167;SDS011;64927;48.214;16.378;2023-02-12T01:35:19;23.65;;;14.88;;
76167;SDS011;64927;48.214;16.378;2023-02-12T01:37:45;20.02;;;13.75;;
76167;SDS011;64927;48.214;16.378;2023-02-12T01:40:10;20.05;;;14.52;;
76167;SDS011;64927;48.214;16.378;2023-02-12T01:42:39;20.90;;;14.15;;
76167;SDS011;64927;48.214;16.378;2023-02-12T01:47:39;20.20;;;14.15;;
76167;SDS011;64927;48.214;16.378;2023-02-12T01:50:10;20.17;;;13.55;;
76167;SDS011;64927;48.214;16.378;2023-02-12T01:52:40;22.88;;;15.45;;
76167;SDS011;64927;48.214;16.378;2023-02-12T01:55:11;22.88;;;15.55;;
76167;SDS011;64927;48.214;16.378;2023-02-12T01:57:39;24.45;;;15.68;;
76167;SDS011;64927;48.214;16.378;2023-02-12T02:00:09;19.67;;;14.77;;
76167;SDS011;64927;48.214;16.378;2023-02-12T02:02:39;23.23;;;14.75;;
76167;SDS011;64927;48.214;16.378;2023-02-12T02:05:08;22.40;;;14.98;;
76167;SDS011;64927;48.214;16.378;2023-02-12T02:07:34;22.92;;;15.90;;
76167;SDS011;64927;48.214;16.378;2023-02-12T02:10:00;24.13;;;15.85;;
76167;SDS011;64927;48.214;16.378;2023-02-12T02:12:26;22.25;;;15.60;;
76167;SDS011;64927;48.214;16.378;2023-02-12T02:15:10;21.45;;;15.25;;
76167;SDS011;64927;48.214;16.378;2023-02-12T02:28:05;21.73;;;16.13;;
76167;SDS011;64927;48.214;16.378;2023-02-12T02:30:56;21.27;;;15.75;;
76167;SDS011;64927;48.214;16.378;2023-02-12T02:39:54;24.40;;;16.52;;
76167;SDS011;64927;48.214;16.378;2023-02-12T02:45:10;24.75;;;16.73;;
76167;SDS011;64927;48.214;16.378;2023-02-12T02:47:43;26.33;;;17.02;;
76167;SDS011;64927;48.214;16.378;2023-02-12T02:50:15;25.73;;;16.35;;
76167;SDS011;64927;48.214;16.378;2023-02-12T02:52:49;25.50;;;15.98;;
76167;SDS011;64927;48.214;16.378;2023-02-12T02:55:19;26.77;;;17.45;;
76167;SDS011;64927;48.214;16.378;2023-02-12T03:03:08;23.60;;;16.75;;
76167;SDS011;64927;48.214;16.378;2023-02-12T03:05:45;22.27;;;15.77;;
76167;SDS011;64927;48.214;16.378;2023-02-12T03:08:14;22.90;;;15.55;;
76167;SDS011;64927;48.214;16.378;2023-02-12T03:10:51;23.60;;;16.25;;
76167;SDS011;64927;48.214;16.378;2023-02-12T03:13:28;24.30;;;17.17;;
76167;SDS011;64927;48.214;16.378;2023-02-12T03:16:03;23.10;;;17.08;;
76167;SDS011;64927;48.214;16.378;2023-02-12T03:18:45;27.00;;;18.48;;
76167;SDS011;64927;48.214;16.378;2023-02-12T03:21:27;24.40;;;17.90;;
76167;SDS011;64927;48.214;16.378;2023-02-12T03:24:47;23.83;;;17.08;;
76167;SDS011;64927;48.214;16.378;2023-02-12T03:29:59;26.20;;;17.60;;
76167;SDS011;64927;48.214;16.378;2023-02-12T03:35:38;24.40;;;17.20;;
76167;SDS011;64927;48.214;16.378;2023-02-12T03:38:14;25.23;;;17.55;;
76167;SDS011;64927;48.214;16.378;2023-02-12T03:43:49;27.73;;;18.63;;
76167;SDS011;64927;48.214;16.378;2023-02-12T03:46:21;25.20;;;17.30;;
76167;SDS011;64927;48.214;16.378;2023-02-12T03:49:33;26.15;;;18.23;;
76167;SDS011;64927;48.214;16.378;2023-02-12T03:52:14;29.30;;;19.13;;
76167;SDS011;64927;48.214;16.378;2023-02-12T03:54:40;25.27;;;17.92;;
76167;SDS011;64927;48.214;16.378;2023-02-12T03:57:07;28.15;;;19.33;;
76167;SDS011;64927;48.214;16.378;2023-02-12T03:59:37;29.85;;;19.70;;
76167;SDS011;64927;48.214;16.378;2023-02-12T04:02:04;27.05;;;18.67;;
76167;SDS011;64927;48.214;16.378;2023-02-12T04:04:33;30.65;;;20.92;;
76167;SDS011;64927;48.214;16.378;2023-02-12T04:07:00;29.20;;;20.08;;
76167;SDS011;64927;48.214;16.378;2023-02-12T04:09:26;28.13;;;19.40;;
76167;SDS011;64927;48.214;16.378;2023-02-12T04:14:47;25.33;;;17.75;;
76167;SDS011;64927;48.214;16.378;2023-02-12T04:19:55;25.38;;;18.13;;
76167;SDS011;64927;48.214;16.378;2023-02-12T04:25:40;26.80;;;18.23;;
76167;SDS011;64927;48.214;16.378;2023-02-12T04:31:29;28.38;;;19.60;;
76167;SDS011;64927;48.214;16.378;2023-02-12T04:36:34;31.95;;;22.23;;
76167;SDS011;64927;48.214;16.378;2023-02-12T04:39:14;29.38;;;20.48;;
76167;SDS011;64927;48.214;16.378;2023-02-12T04:41:43;32.58;;;22.67;;
76167;SDS011;64927;48.214;16.378;2023-02-12T04:46:40;36.83;;;23.08;;
76167;SDS011;64927;48.214;16.378;2023-02-12T04:49:08;34.78;;;21.95;;
76167;SDS011;64927;48.214;16.378;2023-02-12T04:51:38;34.97;;;22.80;;
76167;SDS011;64927;48.214;16.378;2023-02-12T04:54:06;35.75;;;24.45;;
76167;SDS011;64927;48.214;16.378;2023-02-12T04:56:31;35.40;;;23.67;;
76167;SDS011;64927;48.214;16.378;2023-02-12T04:58:57;33.67;;;23.40;;
76167;SDS011;64927;48.214;16.378;2023-02-12T05:01:23;37.95;;;23.90;;
76167;SDS011;64927;48.214;16.378;2023-02-12T05:03:51;35.92;;;24.52;;
76167;SDS011;64927;48.214;16.378;2023-02-12T05:06:22;34.92;;;23.23;;
76167;SDS011;64927;48.214;16.378;2023-02-12T05:08:51;34.75;;;22.67;;
76167;SDS011;64927;48.214;16.378;2023-02-12T05:11:17;30.75;;;22.65;;
76167;SDS011;64927;48.214;16.378;2023-02-12T05:13:46;42.20;;;25.90;;
76167;SDS011;64927;48.214;16.378;2023-02-12T05:16:13;35.17;;;24.50;;
76167;SDS011;64927;48.214;16.378;2023-02-12T05:18:44;33.78;;;23.80;;
76167;SDS011;64927;48.214;16.378;2023-02-12T05:21:10;33.35;;;23.27;;
76167;SDS011;64927;48.214;16.378;2023-02-12T05:23:36;35.65;;;23.88;;
76167;SDS011;64927;48.214;16.378;2023-02-12T05:26:04;33.28;;;23.67;;
76167;SDS011;64927;48.214;16.378;2023-02-12T05:28:36;36.25;;;25.15;;
76167;SDS011;64927;48.214;16.378;2023-02-12T05:31:03;40.15;;;25.75;;
76167;SDS011;64927;48.214;16.378;2023-02-12T05:33:30;35.40;;;25.58;;
76167;SDS011;64927;48.214;16.378;2023-02-12T05:36:02;34.65;;;23.65;;
76167;SDS011;64927;48.214;16.378;2023-02-12T05:38:37;39.20;;;26.05;;
76167;SDS011;64927;48.214;16.378;2023-02-12T05:41:10;39.47;;;25.13;;
76167;SDS011;64927;48.214;16.378;2023-02-12T05:43:44;32.47;;;23.08;;
76167;SDS011;64927;48.214;16.378;2023-02-12T05:46:09;32.85;;;23.92;;
76167;SDS011;64927;48.214;16.378;2023-02-12T05:48:38;33.53;;;24.52;;
76167;SDS011;64927;48.214;16.378;2023-02-12T05:51:05;39.47;;;26.90;;
76167;SDS011;64927;48.214;16.378;2023-02-12T05:53:33;39.25;;;25.45;;
76167;SDS011;64927;48.214;16.378;2023-02-12T05:58:45;35.78;;;23.55;;
76167;SDS011;64927;48.214;16.378;2023-02-12T06:01:20;34.30;;;23.90;;
76167;SDS011;64927;48.214;16.378;2023-02-12T06:03:50;35.55;;;24.27;;
76167;SDS011;64927;48.214;16.378;2023-02-12T06:06:16;35.95;;;25.48;;
76167;SDS011;64927;48.214;16.378;2023-02-12T06:08:42;36.30;;;24.10;;
76167;SDS011;64927;48.214;16.378;2023-02-12T06:11:12;35.38;;;24.02;;
76167;SDS011;64927;48.214;16.378;2023-02-12T06:13:38;33.63;;;23.38;;
76167;SDS011;64927;48.214;16.378;2023-02-12T06:16:04;38.28;;;24.35;;
76167;SDS011;64927;48.214;16.378;2023-02-12T06:18:35;32.40;;;22.65;;
76167;SDS011;64927;48.214;16.378;2023-02-12T06:21:03;34.83;;;23.90;;
76167;SDS011;64927;48.214;16.378;2023-02-12T06:23:29;34.50;;;24.10;;
76167;SDS011;64927;48.214;16.378;2023-02-12T06:25:55;35.85;;;24.70;;
76167;SDS011;64927;48.214;16.378;2023-02-12T06:28:26;36.38;;;24.42;;
76167;SDS011;64927;48.214;16.378;2023-02-12T06:30:51;37.92;;;24.50;;
76167;SDS011;64927;48.214;16.378;2023-02-12T06:33:17;35.28;;;24.75;;
76167;SDS011;64927;48.214;16.378;2023-02-12T06:35:45;34.50;;;24.85;;
76167;SDS011;64927;48.214;16.378;2023-02-12T06:38:11;39.80;;;25.73;;
76167;SDS011;64927;48.214;16.378;2023-02-12T06:40:37;37.42;;;26.90;;
76167;SDS011;64927;48.214;16.378;2023-02-12T06:43:02;35.55;;;25.48;;
76167;SDS011;64927;48.214;16.378;2023-02-12T06:45:28;37.72;;;24.75;;
76167;SDS011;64927;48.214;16.378;2023-02-12T06:47:56;37.10;;;24.75;;
76167;SDS011;64927;48.214;16.378;2023-02-12T06:50:22;34.38;;;25.33;;
76167;SDS011;64927;48.214;16.378;2023-02-12T06:52:48;36.47;;;25.15;;
76167;SDS011;64927;48.214;16.378;2023-02-12T06:55:13;37.42;;;25.45;;
76167;SDS011;64927;48.214;16.378;2023-02-12T06:57:42;37.95;;;25.75;;
76167;SDS011;64927;48.214;16.378;2023-02-12T07:00:08;36.83;;;24.95;;
76167;SDS011;64927;48.214;16.378;2023-02-12T07:02:34;34.20;;;24.38;;
76167;SDS011;64927;48.214;16.378;2023-02-12T07:05:00;33.92;;;23.02;;
76167;SDS011;64927;48.214;16.378;2023-02-12T07:07:26;31.85;;;23.63;;
76167;SDS011;64927;48.214;16.378;2023-02-12T07:09:54;32.78;;;22.80;;
76167;SDS011;64927;48.214;16.378;2023-02-12T07:12:21;33.00;;;23.25;;
76167;SDS011;64927;48.214;16.378;2023-02-12T07:14:47;33.53;;;23.30;;
76167;SDS011;64927;48.214;16.378;2023-02-12T07:17:13;32.35;;;23.35;;
76167;SDS011;64927;48.214;16.378;2023-02-12T07:19:41;33.00;;;23.83;;
76167;SDS011;64927;48.214;16.378;2023-02-12T07:22:07;31.02;;;22.60;;
76167;SDS011;64927;48.214;16.378;2023-02-12T07:24:37;31.77;;;23.27;;
76167;SDS011;64927;48.214;16.378;2023-02-12T07:27:03;31.58;;;21.70;;
76167;SDS011;64927;48.214;16.378;2023-02-12T07:29:29;29.00;;;21.13;;
76167;SDS011;64927;48.214;16.378;2023-02-12T07:31:54;29.50;;;22.35;;
76167;SDS011;64927;48.214;16.378;2023-02-12T07:34:20;33.47;;;23.17;;
76167;SDS011;64927;48.214;16.378;2023-02-12T07:36:48;31.45;;;21.42;;
76167;SDS011;64927;48.214;16.378;2023-02-12T07:39:13;28.40;;;22.15;;
76167;SDS011;64927;48.214;16.378;2023-02-12T07:41:39;28.73;;;20.70;;
76167;SDS011;64927;48.214;16.378;2023-02-12T07:44:06;31.25;;;21.17;;
76167;SDS011;64927;48.214;16.378;2023-02-12T07:46:38;29.95;;;19.60;;
76167;SDS011;64927;48.214;16.378;2023-02-12T07:49:11;27.67;;;19.55;;
76167;SDS011;64927;48.214;16.378;2023-02-12T07:51:38;27.10;;;20.63;;
76167;SDS011;64927;48.214;16.378;2023-02-12T07:54:04;28.40;;;20.90;;
76167;SDS011;64927;48.214;16.378;2023-02-12T07:56:31;28.60;;;20.48;;
76167;SDS011;64927;48.214;16.378;2023-02-12T07:59:00;29.77;;;22.08;;
76167;SDS011;64927;48.214;16.378;2023-02-12T08:01:29;29.20;;;21.73;;
76167;SDS011;64927;48.214;16.378;2023-02-12T08:04:04;31.77;;;22.45;;
76167;SDS011;64927;48.214;16.378;2023-02-12T08:06:33;31.08;;;22.33;;
76167;SDS011;64927;48.214;16.378;2023-02-12T08:09:01;26.67;;;19.88;;
76167;SDS011;64927;48.214;16.378;2023-02-12T08:11:29;30.40;;;21.40;;
76167;SDS011;64927;48.214;16.378;2023-02-12T08:13:56;30.15;;;20.60;;
76167;SDS011;64927;48.214;16.378;2023-02-12T08:16:23;26.65;;;20.17;;
76167;SDS011;64927;48.214;16.378;2023-02-12T08:18:50;26.88;;;19.48;;
76167;SDS011;64927;48.214;16.378;2023-02-12T08:21:20;30.30;;;20.63;;
76167;SDS011;64927;48.214;16.378;2023-02-12T08:23:48;26.75;;;18.70;;
76167;SDS011;64927;48.214;16.378;2023-02-12T08:26:22;26.98;;;19.75;;
76167;SDS011;64927;48.214;16.378;2023-02-12T08:28:51;29.98;;;19.20;;
76167;SDS011;64927;48.214;16.378;2023-02-12T08:31:20;28.52;;;20.23;;
76167;SDS011;64927;48.214;16.378;2023-02-12T08:33:47;25.88;;;19.48;;
76167;SDS011;64927;48.214;16.378;2023-02-12T08:36:19;25.35;;;18.63;;
76167;SDS011;64927;48.214;16.378;2023-02-12T08:38:50;28.52;;;19.90;;
76167;SDS011;64927;48.214;16.378;2023-02-12T08:41:17;25.77;;;18.58;;
76167;SDS011;64927;48.214;16.378;2023-02-12T08:43:45;26.60;;;19.30;;
76167;SDS011;64927;48.214;16.378;2023-02-12T08:46:12;26.52;;;19.00;;
76167;SDS011;64927;48.214;16.378;2023-02-12T08:48:40;28.65;;;19.23;;
76167;SDS011;64927;48.214;16.378;2023-02-12T08:51:08;25.60;;;18.85;;
76167;SDS011;64927;48.214;16.378;2023-02-12T08:53:37;24.20;;;17.85;;
76167;SDS011;64927;48.214;16.378;2023-02-12T08:56:04;27.17;;;19.38;;
76167;SDS011;64927;48.214;16.378;2023-02-12T08:58:30;27.95;;;18.33;;
76167;SDS011;64927;48.214;16.378;2023-02-12T09:00:56;25.63;;;18.30;;
76167;SDS011;64927;48.214;16.378;2023-02-12T09:03:24;22.25;;;16.75;;
76167;SDS011;64927;48.214;16.378;2023-02-12T09:05:50;24.73;;;18.05;;
76167;SDS011;64927;48.214;16.378;2023-02-12T09:08:16;22.45;;;17.20;;
76167;SDS011;64927;48.214;16.378;2023-02-12T09:10:44;25.00;;;17.08;;
76167;SDS011;64927;48.214;16.378;2023-02-12T09:13:12;21.67;;;16.38;;
76167;SDS011;64927;48.214;16.378;2023-02-12T09:15:40;22.80;;;17.17;;
76167;SDS011;64927;48.214;16.378;2023-02-12T09:18:07;22.35;;;16.85;;
76167;SDS011;64927;48.214;16.378;2023-02-12T09:20:38;24.52;;;16.63;;
76167;SDS011;64927;48.214;16.378;2023-02-12T09:23:06;21.63;;;15.60;;
76167;SDS011;64927;48.214;16.378;2023-02-12T09:25:38;22.35;;;16.58;;
76167;SDS011;64927;48.214;16.378;2023-02-12T09:28:04;19.85;;;15.23;;
76167;SDS011;64927;48.214;16.378;2023-02-12T09:30:30;24.83;;;16.25;;
76167;SDS011;64927;48.214;16.378;2023-02-12T09:32:56;21.00;;;16.05;;
76167;SDS011;64927;48.214;16.378;2023-02-12T09:35:23;23.35;;;14.57;;
76167;SDS011;64927;48.214;16.378;2023-02-12T09:37:51;25.70;;;15.25;;
76167;SDS011;64927;48.214;16.378;2023-02-12T09:40:21;19.73;;;14.82;;
76167;SDS011;64927;48.214;16.378;2023-02-12T09:42:51;19.88;;;14.70;;
76167;SDS011;64927;48.214;16.378;2023-02-12T09:45:22;19.08;;;13.52;;
76167;SDS011;64927;48.214;16.378;2023-02-12T09:47:57;22.67;;;14.57;;
76167;SDS011;64927;48.214;16.378;2023-02-12T09:50:42;23.55;;;13.77;;
76167;SDS011;64927;48.214;16.378;2023-02-12T09:53:15;19.63;;;14.25;;
76167;SDS011;64927;48.214;16.378;2023-02-12T09:55:43;20.13;;;13.50;;
76167;SDS011;64927;48.214;16.378;2023-02-12T09:58:13;21.80;;;12.20;;
76167;SDS011;64927;48.214;16.378;2023-02-12T10:00:44;16.42;;;11.15;;
76167;SDS011;64927;48.214;16.378;2023-02-12T10:03:16;20.75;;;12.02;;
76167;SDS011;64927;48.214;16.378;2023-02-12T10:05:44;16.77;;;11.65;;
76167;SDS011;64927;48.214;16.378;2023-02-12T10:13:41;16.10;;;11.15;;
76167;SDS011;64927;48.214;16.378;2023-02-12T10:16:38;17.58;;;12.77;;
76167;SDS011;64927;48.214;16.378;2023-02-12T10:19:29;14.98;;;11.82;;
76167;SDS011;64927;48.214;16.378;2023-02-12T10:27:45;17.77;;;11.70;;
76167;SDS011;64927;48.214;16.378;2023-02-12T10:33:03;20.05;;;12.10;;
76167;SDS011;64927;48.214;16.378;2023-02-12T10:35:31;19.73;;;11.88;;
76167;SDS011;64927;48.214;16.378;2023-02-12T10:38:07;17.05;;;12.05;;
76167;SDS011;64927;48.214;16.378;2023-02-12T10:40:42;22.00;;;12.70;;
76167;SDS011;64927;48.214;16.378;2023-02-12T10:43:09;16.30;;;11.57;;
76167;SDS011;64927;48.214;16.378;2023-02-12T10:45:46;18.45;;;13.00;;
76167;SDS011;64927;48.214;16.378;2023-02-12T10:48:21;17.17;;;11.77;;
76167;SDS011;64927;48.214;16.378;2023-02-12T10:53:36;20.17;;;13.48;;
76167;SDS011;64927;48.214;16.378;2023-02-12T10:58:40;16.20;;;11.77;;
76167;SDS011;64927;48.214;16.378;2023-02-12T11:01:28;14.32;;;10.20;;
76167;SDS011;64927;48.214;16.378;2023-02-12T11:03:59;16.50;;;10.25;;
76167;SDS011;64927;48.214;16.378;2023-02-12T11:07:01;15.90;;;11.27;;
76167;SDS011;64927;48.214;16.378;2023-02-12T11:09:36;19.38;;;10.60;;
76167;SDS011;64927;48.214;16.378;2023-02-12T11:14:59;15.75;;;10.93;;
76167;SDS011;64927;48.214;16.378;2023-02-12T11:17:37;18.58;;;12.02;;
76167;SDS011;64927;48.214;16.378;2023-02-12T11:20:06;16.95;;;11.82;;
76167;SDS011;64927;48.214;16.378;2023-02-12T11:22:34;16.33;;;12.10;;
76167;SDS011;64927;48.214;16.378;2023-02-12T11:25:03;18.05;;;12.10;;
76167;SDS011;64927;48.214;16.378;2023-02-12T11:27:44;20.13;;;13.00;;
76167;SDS011;64927;48.214;16.378;2023-02-12T11:30:47;15.70;;;12.27;;
76167;SDS011;64927;48.214;16.378;2023-02-12T11:33:33;20.35;;;11.95;;
76167;SDS011;64927;48.214;16.378;2023-02-12T11:36:13;17.52;;;11.25;;
76167;SDS011;64927;48.214;16.378;2023-02-12T11:38:57;16.02;;;11.70;;
76167;SDS011;64927;48.214;16.378;2023-02-12T11:44:11;17.58;;;11.48;;
76167;SDS011;64927;48.214;16.378;2023-02-12T11:46:44;20.02;;;12.02;;
76167;SDS011;64927;48.214;16.378;2023-02-12T11:49:18;20.30;;;11.82;;
76167;SDS011;64927;48.214;16.378;2023-02-12T11:51:47;17.90;;;12.20;;
76167;SDS011;64927;48.214;16.378;2023-02-12T11:54:24;15.48;;;12.35;;
76167;SDS011;64927;48.214;16.378;2023-02-12T11:56:57;21.05;;;12.00;;
76167;SDS011;64927;48.214;16.378;2023-02-12T11:59:35;17.45;;;10.60;;
76167;SDS011;64927;48.214;16.378;2023-02-12T12:02:23;13.23;;;9.45;;
76167;SDS011;64927;48.214;16.378;2023-02-12T12:05:05;16.08;;;11.20;;
76167;SDS011;64927;48.214;16.378;2023-02-12T12:07:36;23.48;;;12.10;;
76167;SDS011;64927;48.214;16.378;2023-02-12T12:10:11;15.43;;;11.30;;
76167;SDS011;64927;48.214;16.378;2023-02-12T12:12:43;15.52;;;11.27;;
76167;SDS011;64927;48.214;16.378;2023-02-12T12:15:37;17.95;;;12.38;;
76167;SDS011;64927;48.214;16.378;2023-02-12T12:18:42;18.80;;;12.10;;
76167;SDS011;64927;48.214;16.378;2023-02-12T12:21:44;20.88;;;13.35;;
76167;SDS011;64927;48.214;16.378;2023-02-12T12:27:22;18.70;;;12.48;;
76167;SDS011;64927;48.214;16.378;2023-02-12T12:30:35;22.70;;;12.30;;
76167;SDS011;64927;48.214;16.378;2023-02-12T12:38:38;19.33;;;11.70;;
76167;SDS011;64927;48.214;16.378;2023-02-12T12:58:26;18.40;;;10.82;;
76167;SDS011;64927;48.214;16.378;2023-02-12T13:18:04;19.42;;;13.85;;
76167;SDS011;64927;48.214;16.378;2023-02-12T13:20:56;23.17;;;13.52;;
76167;SDS011;64927;48.214;16.378;2023-02-12T13:29:20;22.27;;;13.55;;
76167;SDS011;64927;48.214;16.378;2023-02-12T13:32:02;23.35;;;14.55;;
76167;SDS011;64927;48.214;16.378;2023-02-12T13:34:33;23.42;;;14.15;;
76167;SDS011;64927;48.214;16.378;2023-02-12T13:37:03;21.60;;;13.10;;
76167;SDS011;64927;48.214;16.378;2023-02-12T13:39:38;19.25;;;12.70;;
76167;SDS011;64927;48.214;16.378;2023-02-12T13:42:16;19.92;;;13.98;;
76167;SDS011;64927;48.214;16.378;2023-02-12T13:48:21;17.83;;;12.52;;
76167;SDS011;64927;48.214;16.378;2023-02-12T13:58:51;25.40;;;16.15;;
76167;SDS011;64927;48.214;16.378;2023-02-12T14:04:13;30.10;;;18.00;;
76167;SDS011;64927;48.214;16.378;2023-02-12T14:06:58;26.90;;;17.50;;
76167;SDS011;64927;48.214;16.378;2023-02-12T14:09:33;31.85;;;19.50;;
76167;SDS011;64927;48.214;16.378;2023-02-12T14:12:10;26.63;;;17.20;;
76167;SDS011;64927;48.214;16.378;2023-02-12T14:14:39;28.80;;;17.98;;
76167;SDS011;64927;48.214;16.378;2023-02-12T14:20:19;26.13;;;18.05;;
76167;SDS011;64927;48.214;16.378;2023-02-12T14:37:52;24.52;;;17.20;;
76167;SDS011;64927;48.214;16.378;2023-02-12T14:40:29;24.35;;;16.52;;
76167;SDS011;64927;48.214;16.378;2023-02-12T14:42:55;26.85;;;17.05;;
76167;SDS011;64927;48.214;16.378;2023-02-12T14:45:34;29.85;;;17.55;;
76167;SDS011;64927;48.214;16.378;2023-02-12T14:48:03;27.92;;;17.90;;
76167;SDS011;64927;48.214;16.378;2023-02-12T14:50:41;26.77;;;17.10;;
76167;SDS011;64927;48.214;16.378;2023-02-12T14:55:51;26.93;;;17.43;;
76167;SDS011;64927;48.214;16.378;2023-02-12T14:58:24;27.92;;;18.23;;
76167;SDS011;64927;48.214;16.378;2023-02-12T15:00:55;26.10;;;18.20;;
76167;SDS011;64927;48.214;16.378;2023-02-12T15:06:15;28.92;;;18.23;;
76167;SDS011;64927;48.214;16.378;2023-02-12T15:08:56;27.38;;;18.40;;
76167;SDS011;64927;48.214;16.378;2023-02-12T15:11:29;30.98;;;19.10;;
76167;SDS011;64927;48.214;16.378;2023-02-12T15:14:31;32.72;;;18.92;;
76167;SDS011;64927;48.214;16.378;2023-02-12T15:17:07;26.92;;;17.98;;
76167;SDS011;64927;48.214;16.378;2023-02-12T15:19:51;33.92;;;18.60;;
76167;SDS011;64927;48.214;16.378;2023-02-12T15:22:38;29.08;;;18.17;;
76167;SDS011;64927;48.214;16.378;2023-02-12T15:28:12;28.23;;;18.45;;
76167;SDS011;64927;48.214;16.378;2023-02-12T15:30:49;27.27;;;18.20;;
76167;SDS011;64927;48.214;16.378;2023-02-12T15:33:23;26.50;;;17.92;;
76167;SDS011;64927;48.214;16.378;2023-02-12T15:35:53;27.02;;;17.70;;
76167;SDS011;64927;48.214;16.378;2023-02-12T15:38:21;29.17;;;18.55;;
76167;SDS011;64927;48.214;16.378;2023-02-12T15:40:55;28.25;;;18.23;;
76167;SDS011;64927;48.214;16.378;2023-02-12T15:43:25;29.90;;;18.08;;
76167;SDS011;64927;48.214;16.378;2023-02-12T15:45:55;26.35;;;17.85;;
76167;SDS011;64927;48.214;16.378;2023-02-12T15:48:27;32.75;;;19.27;;
76167;SDS011;64927;48.214;16.378;2023-02-12T15:51:01;27.13;;;18.27;;
76167;SDS011;64927;48.214;16.378;2023-02-12T15:53:38;29.15;;;19.20;;
76167;SDS011;64927;48.214;16.378;2023-02-12T15:56:09;30.35;;;19.23;;
76167;SDS011;64927;48.214;16.378;2023-02-12T15:58:46;27.98;;;19.08;;
76167;SDS011;64927;48.214;16.378;2023-02-12T16:01:15;29.25;;;19.05;;
76167;SDS011;64927;48.214;16.378;2023-02-12T16:03:59;27.35;;;18.80;;
76167;SDS011;64927;48.214;16.378;2023-02-12T16:06:35;30.65;;;18.50;;
76167;SDS011;64927;48.214;16.378;2023-02-12T16:09:05;27.27;;;19.40;;
76167;SDS011;64927;48.214;16.378;2023-02-12T16:11:31;30.20;;;19.05;;
76167;SDS011;64927;48.214;16.378;2023-02-12T16:13:59;24.77;;;17.85;;
76167;SDS011;64927;48.214;16.378;2023-02-12T16:16:43;30.40;;;18.45;;
76167;SDS011;64927;48.214;16.378;2023-02-12T16:19:18;25.67;;;18.13;;
76167;SDS011;64927;48.214;16.378;2023-02-12T16:21:45;33.05;;;19.38;;
76167;SDS011;64927;48.214;16.378;2023-02-12T16:24:36;26.55;;;17.65;;
76167;SDS011;64927;48.214;16.378;2023-02-12T16:27:16;26.92;;;17.83;;
76167;SDS011;64927;48.214;16.378;2023-02-12T16:30:05;31.90;;;19.23;;
76167;SDS011;64927;48.214;16.378;2023-02-12T16:32:48;30.15;;;18.92;;
76167;SDS011;64927;48.214;16.378;2023-02-12T16:40:23;30.83;;;17.85;;
76167;SDS011;64927;48.214;16.378;2023-02-12T16:42:54;31.48;;;19.27;;
76167;SDS011;64927;48.214;16.378;2023-02-12T16:47:52;28.05;;;18.63;;
76167;SDS011;64927;48.214;16.378;2023-02-12T16:50:22;26.15;;;18.02;;
76167;SDS011;64927;48.214;16.378;2023-02-12T16:53:02;28.38;;;17.38;;
76167;SDS011;64927;48.214;16.378;2023-02-12T16:55:50;29.10;;;17.73;;
76167;SDS011;64927;48.214;16.378;2023-02-12T16:58:17;33.13;;;18.10;;
76167;SDS011;64927;48.214;16.378;2023-02-12T17:00:43;25.27;;;17.20;;
76167;SDS011;64927;48.214;16.378;2023-02-12T17:03:11;24.02;;;16.85;;
76167;SDS011;64927;48.214;16.378;2023-02-12T17:05:39;30.30;;;17.15;;
76167;SDS011;64927;48.214;16.378;2023-02-12T17:08:13;27.58;;;18.08;;
76167;SDS011;64927;48.214;16.378;2023-02-12T17:10:46;26.17;;;17.80;;
76167;SDS011;64927;48.214;16.378;2023-02-12T17:13:13;26.85;;;18.27;;
76167;SDS011;64927;48.214;16.378;2023-02-12T17:15:41;29.25;;;18.67;;
76167;SDS011;64927;48.214;16.378;2023-02-12T17:18:14;28.48;;;18.55;;
76167;SDS011;64927;48.214;16.378;2023-02-12T17:20:42;28.40;;;19.13;;
76167;SDS011;64927;48.214;16.378;2023-02-12T17:23:14;30.67;;;18.65;;
76167;SDS011;64927;48.214;16.378;2023-02-12T17:25:40;31.25;;;19.00;;
76167;SDS011;64927;48.214;16.378;2023-02-12T17:28:06;30.80;;;19.50;;
76167;SDS011;64927;48.214;16.378;2023-02-12T17:30:33;29.33;;;18.38;;
76167;SDS011;64927;48.214;16.378;2023-02-12T17:33:03;28.88;;;19.17;;